Terminal Aerodrome Forecast
Issued by NWS Oklahoma City, OK

Home | Current Version | Previous Version | Text Only | Print | Product List | Glossary On
Versions: 1 2 3 4 5 6 7 8 9 10 11 12 13 14 15 16 17
000
FTUS44 KOUN 231721
TAFOUN
TAF
KOUN 231721Z 2318/2418 19019G23KT P6SM SKC
     FM240100 16015G25KT P6SM BKN120 PROB30 2404/2407 3SM TSRA
      BKN040CB
     FM240900 18017G25KT P6SM BKN015=

USA.gov is the U.S. government's official web portal to all federal, state and local government web resources and services.